sensor_id;sensor_type;location;lat;lon;timestamp;P1;durP1;ratioP1;P2;durP2;ratioP2
20397;SDS011;10358;49.590;11.030;2023-08-01T00:01:28;12.07;;;4.47;;
20397;SDS011;10358;49.590;11.030;2023-08-01T00:03:54;10.32;;;4.57;;
20397;SDS011;10358;49.590;11.030;2023-08-01T00:06:20;7.75;;;4.50;;
20397;SDS011;10358;49.590;11.030;2023-08-01T00:08:47;9.85;;;4.95;;
20397;SDS011;10358;49.590;11.030;2023-08-01T00:11:12;11.90;;;4.47;;
20397;SDS011;10358;49.590;11.030;2023-08-01T00:13:39;9.43;;;4.70;;
20397;SDS011;10358;49.590;11.030;2023-08-01T00:16:05;6.65;;;4.28;;
20397;SDS011;10358;49.590;11.030;2023-08-01T00:18:31;12.43;;;4.40;;
20397;SDS011;10358;49.590;11.030;2023-08-01T00:20:56;9.38;;;4.82;;
20397;SDS011;10358;49.590;11.030;2023-08-01T00:23:23;8.50;;;4.70;;
20397;SDS011;10358;49.590;11.030;2023-08-01T00:25:49;9.88;;;4.38;;
20397;SDS011;10358;49.590;11.030;2023-08-01T00:28:17;8.93;;;4.65;;
20397;SDS011;10358;49.590;11.030;2023-08-01T00:30:43;7.90;;;4.75;;
20397;SDS011;10358;49.590;11.030;2023-08-01T00:33:09;9.52;;;4.75;;
20397;SDS011;10358;49.590;11.030;2023-08-01T00:35:34;8.10;;;4.43;;
20397;SDS011;10358;49.590;11.030;2023-08-01T00:38:00;10.05;;;4.60;;
20397;SDS011;10358;49.590;11.030;2023-08-01T00:40:31;11.15;;;4.45;;
20397;SDS011;10358;49.590;11.030;2023-08-01T00:42:58;8.90;;;4.57;;
20397;SDS011;10358;49.590;11.030;2023-08-01T00:45:24;10.05;;;4.80;;
20397;SDS011;10358;49.590;11.030;2023-08-01T00:47:50;8.38;;;4.43;;
20397;SDS011;10358;49.590;11.030;2023-08-01T00:50:17;10.18;;;4.47;;
20397;SDS011;10358;49.590;11.030;2023-08-01T00:52:45;14.18;;;4.80;;
20397;SDS011;10358;49.590;11.030;2023-08-01T00:55:11;9.60;;;5.43;;
20397;SDS011;10358;49.590;11.030;2023-08-01T00:57:37;9.20;;;5.20;;
20397;SDS011;10358;49.590;11.030;2023-08-01T01:00:03;9.48;;;5.07;;
20397;SDS011;10358;49.590;11.030;2023-08-01T01:02:29;9.63;;;5.20;;
20397;SDS011;10358;49.590;11.030;2023-08-01T01:04:54;10.60;;;5.03;;
20397;SDS011;10358;49.590;11.030;2023-08-01T01:07:20;8.88;;;4.38;;
20397;SDS011;10358;49.590;11.030;2023-08-01T01:09:48;8.70;;;4.65;;
20397;SDS011;10358;49.590;11.030;2023-08-01T01:12:15;8.00;;;4.50;;
20397;SDS011;10358;49.590;11.030;2023-08-01T01:14:41;9.52;;;5.32;;
20397;SDS011;10358;49.590;11.030;2023-08-01T01:17:06;7.28;;;4.80;;
20397;SDS011;10358;49.590;11.030;2023-08-01T01:19:32;9.77;;;5.10;;
20397;SDS011;10358;49.590;11.030;2023-08-01T01:21:57;10.43;;;5.03;;
20397;SDS011;10358;49.590;11.030;2023-08-01T01:24:23;9.88;;;5.15;;
20397;SDS011;10358;49.590;11.030;2023-08-01T01:26:51;8.43;;;4.60;;
20397;SDS011;10358;49.590;11.030;2023-08-01T01:29:19;11.45;;;4.60;;
20397;SDS011;10358;49.590;11.030;2023-08-01T01:31:46;10.55;;;4.57;;
20397;SDS011;10358;49.590;11.030;2023-08-01T01:34:13;9.82;;;4.50;;
20397;SDS011;10358;49.590;11.030;2023-08-01T01:36:38;10.18;;;4.60;;
20397;SDS011;10358;49.590;11.030;2023-08-01T01:39:04;7.28;;;4.45;;
20397;SDS011;10358;49.590;11.030;2023-08-01T01:41:30;8.85;;;4.85;;
20397;SDS011;10358;49.590;11.030;2023-08-01T01:43:55;11.57;;;5.47;;
20397;SDS011;10358;49.590;11.030;2023-08-01T01:46:21;10.70;;;5.05;;
20397;SDS011;10358;49.590;11.030;2023-08-01T01:48:46;9.48;;;5.18;;
20397;SDS011;10358;49.590;11.030;2023-08-01T01:51:12;8.77;;;4.40;;
20397;SDS011;10358;49.590;11.030;2023-08-01T01:53:38;9.50;;;4.57;;
20397;SDS011;10358;49.590;11.030;2023-08-01T01:56:04;9.77;;;4.38;;
20397;SDS011;10358;49.590;11.030;2023-08-01T01:58:29;8.07;;;4.30;;
20397;SDS011;10358;49.590;11.030;2023-08-01T02:00:55;8.18;;;4.68;;
20397;SDS011;10358;49.590;11.030;2023-08-01T02:03:20;7.32;;;4.63;;
20397;SDS011;10358;49.590;11.030;2023-08-01T02:05:46;7.57;;;4.25;;
20397;SDS011;10358;49.590;11.030;2023-08-01T02:08:11;9.40;;;4.43;;
20397;SDS011;10358;49.590;11.030;2023-08-01T02:10:37;9.05;;;4.22;;
20397;SDS011;10358;49.590;11.030;2023-08-01T02:13:02;7.88;;;4.18;;
20397;SDS011;10358;49.590;11.030;2023-08-01T02:15:28;9.30;;;4.15;;
20397;SDS011;10358;49.590;11.030;2023-08-01T02:17:53;8.18;;;4.00;;
20397;SDS011;10358;49.590;11.030;2023-08-01T02:20:19;13.23;;;4.00;;
20397;SDS011;10358;49.590;11.030;2023-08-01T02:22:45;6.90;;;4.22;;
20397;SDS011;10358;49.590;11.030;2023-08-01T02:25:10;8.10;;;4.22;;
20397;SDS011;10358;49.590;11.030;2023-08-01T02:27:36;7.40;;;4.00;;
20397;SDS011;10358;49.590;11.030;2023-08-01T02:30:02;7.35;;;4.07;;
20397;SDS011;10358;49.590;11.030;2023-08-01T02:32:27;8.68;;;4.22;;
20397;SDS011;10358;49.590;11.030;2023-08-01T02:34:53;8.15;;;4.22;;
20397;SDS011;10358;49.590;11.030;2023-08-01T02:37:19;8.80;;;4.32;;
20397;SDS011;10358;49.590;11.030;2023-08-01T02:39:44;6.78;;;4.07;;
20397;SDS011;10358;49.590;11.030;2023-08-01T02:42:10;7.97;;;4.15;;
20397;SDS011;10358;49.590;11.030;2023-08-01T02:44:35;8.32;;;4.25;;
20397;SDS011;10358;49.590;11.030;2023-08-01T02:47:01;7.20;;;4.10;;
20397;SDS011;10358;49.590;11.030;2023-08-01T02:49:26;6.28;;;3.72;;
20397;SDS011;10358;49.590;11.030;2023-08-01T02:51:52;7.88;;;3.97;;
20397;SDS011;10358;49.590;11.030;2023-08-01T02:54:17;7.75;;;3.97;;
20397;SDS011;10358;49.590;11.030;2023-08-01T02:56:43;8.68;;;3.88;;
20397;SDS011;10358;49.590;11.030;2023-08-01T02:59:08;7.07;;;4.03;;
20397;SDS011;10358;49.590;11.030;2023-08-01T03:01:35;9.02;;;4.45;;
20397;SDS011;10358;49.590;11.030;2023-08-01T03:04:04;8.30;;;3.90;;
20397;SDS011;10358;49.590;11.030;2023-08-01T03:06:31;10.32;;;3.90;;
20397;SDS011;10358;49.590;11.030;2023-08-01T03:08:57;9.52;;;4.45;;
20397;SDS011;10358;49.590;11.030;2023-08-01T03:11:24;6.72;;;4.00;;
20397;SDS011;10358;49.590;11.030;2023-08-01T03:13:49;9.65;;;3.88;;
20397;SDS011;10358;49.590;11.030;2023-08-01T03:16:15;10.80;;;4.78;;
20397;SDS011;10358;49.590;11.030;2023-08-01T03:18:41;7.05;;;3.80;;
20397;SDS011;10358;49.590;11.030;2023-08-01T03:21:08;9.05;;;4.50;;
20397;SDS011;10358;49.590;11.030;2023-08-01T03:23:34;10.25;;;4.40;;
20397;SDS011;10358;49.590;11.030;2023-08-01T03:25:59;12.02;;;4.40;;
20397;SDS011;10358;49.590;11.030;2023-08-01T03:28:25;7.47;;;4.20;;
20397;SDS011;10358;49.590;11.030;2023-08-01T03:30:51;7.88;;;4.03;;
20397;SDS011;10358;49.590;11.030;2023-08-01T03:33:18;7.28;;;4.10;;
20397;SDS011;10358;49.590;11.030;2023-08-01T03:35:44;8.75;;;3.92;;
20397;SDS011;10358;49.590;11.030;2023-08-01T03:38:10;7.45;;;4.03;;
20397;SDS011;10358;49.590;11.030;2023-08-01T03:40:35;9.82;;;4.10;;
20397;SDS011;10358;49.590;11.030;2023-08-01T03:43:01;7.65;;;4.47;;
20397;SDS011;10358;49.590;11.030;2023-08-01T03:45:27;9.50;;;4.45;;
20397;SDS011;10358;49.590;11.030;2023-08-01T03:47:52;10.20;;;3.95;;
20397;SDS011;10358;49.590;11.030;2023-08-01T03:50:18;6.65;;;3.40;;
20397;SDS011;10358;49.590;11.030;2023-08-01T03:52:43;10.15;;;4.35;;
20397;SDS011;10358;49.590;11.030;2023-08-01T03:55:10;7.88;;;3.95;;
20397;SDS011;10358;49.590;11.030;2023-08-01T03:57:35;10.73;;;4.18;;
20397;SDS011;10358;49.590;11.030;2023-08-01T04:00:03;10.63;;;4.40;;
20397;SDS011;10358;49.590;11.030;2023-08-01T04:02:38;7.45;;;4.65;;
20397;SDS011;10358;49.590;11.030;2023-08-01T04:05:08;11.15;;;4.50;;
20397;SDS011;10358;49.590;11.030;2023-08-01T04:07:37;7.93;;;3.97;;
20397;SDS011;10358;49.590;11.030;2023-08-01T04:10:03;7.72;;;4.07;;
20397;SDS011;10358;49.590;11.030;2023-08-01T04:12:32;6.80;;;3.70;;
20397;SDS011;10358;49.590;11.030;2023-08-01T04:14:59;6.60;;;3.80;;
20397;SDS011;10358;49.590;11.030;2023-08-01T04:17:25;6.38;;;4.00;;
20397;SDS011;10358;49.590;11.030;2023-08-01T04:19:50;7.18;;;3.67;;
20397;SDS011;10358;49.590;11.030;2023-08-01T04:22:16;9.13;;;4.45;;
20397;SDS011;10358;49.590;11.030;2023-08-01T04:24:41;6.95;;;3.70;;
20397;SDS011;10358;49.590;11.030;2023-08-01T04:27:07;8.07;;;4.10;;
20397;SDS011;10358;49.590;11.030;2023-08-01T04:29:33;6.68;;;3.72;;
20397;SDS011;10358;49.590;11.030;2023-08-01T04:31:58;9.60;;;3.92;;
20397;SDS011;10358;49.590;11.030;2023-08-01T04:34:24;7.22;;;4.10;;
20397;SDS011;10358;49.590;11.030;2023-08-01T04:36:49;8.45;;;3.97;;
20397;SDS011;10358;49.590;11.030;2023-08-01T04:39:15;8.02;;;3.85;;
20397;SDS011;10358;49.590;11.030;2023-08-01T04:41:40;12.52;;;3.78;;
20397;SDS011;10358;49.590;11.030;2023-08-01T04:44:06;7.57;;;4.18;;
20397;SDS011;10358;49.590;11.030;2023-08-01T04:46:32;8.23;;;4.22;;
20397;SDS011;10358;49.590;11.030;2023-08-01T04:48:57;10.38;;;4.18;;
20397;SDS011;10358;49.590;11.030;2023-08-01T04:51:24;7.00;;;3.60;;
20397;SDS011;10358;49.590;11.030;2023-08-01T04:53:49;9.25;;;4.47;;
20397;SDS011;10358;49.590;11.030;2023-08-01T04:56:15;10.20;;;4.25;;
20397;SDS011;10358;49.590;11.030;2023-08-01T04:58:41;12.27;;;4.78;;
20397;SDS011;10358;49.590;11.030;2023-08-01T05:01:06;6.60;;;3.75;;
20397;SDS011;10358;49.590;11.030;2023-08-01T05:03:32;6.70;;;3.97;;
20397;SDS011;10358;49.590;11.030;2023-08-01T05:05:57;7.30;;;4.18;;
20397;SDS011;10358;49.590;11.030;2023-08-01T05:08:23;9.02;;;3.90;;
20397;SDS011;10358;49.590;11.030;2023-08-01T05:10:48;4.97;;;3.70;;
20397;SDS011;10358;49.590;11.030;2023-08-01T05:13:15;7.10;;;3.78;;
20397;SDS011;10358;49.590;11.030;2023-08-01T05:15:43;8.63;;;4.40;;
20397;SDS011;10358;49.590;11.030;2023-08-01T05:18:10;11.52;;;4.00;;
20397;SDS011;10358;49.590;11.030;2023-08-01T05:20:35;9.10;;;4.25;;
20397;SDS011;10358;49.590;11.030;2023-08-01T05:23:01;8.05;;;4.32;;
20397;SDS011;10358;49.590;11.030;2023-08-01T05:25:26;7.95;;;4.68;;
20397;SDS011;10358;49.590;11.030;2023-08-01T05:27:52;8.48;;;4.25;;
20397;SDS011;10358;49.590;11.030;2023-08-01T05:30:17;8.77;;;4.25;;
20397;SDS011;10358;49.590;11.030;2023-08-01T05:32:43;13.20;;;4.88;;
20397;SDS011;10358;49.590;11.030;2023-08-01T05:35:10;12.55;;;4.55;;
20397;SDS011;10358;49.590;11.030;2023-08-01T05:37:36;11.65;;;4.53;;
20397;SDS011;10358;49.590;11.030;2023-08-01T05:40:04;8.23;;;4.60;;
20397;SDS011;10358;49.590;11.030;2023-08-01T05:42:30;8.02;;;4.43;;
20397;SDS011;10358;49.590;11.030;2023-08-01T05:44:56;11.50;;;4.20;;
20397;SDS011;10358;49.590;11.030;2023-08-01T05:47:21;7.95;;;4.40;;
20397;SDS011;10358;49.590;11.030;2023-08-01T05:49:50;8.45;;;4.20;;
20397;SDS011;10358;49.590;11.030;2023-08-01T05:52:15;7.03;;;4.20;;
20397;SDS011;10358;49.590;11.030;2023-08-01T05:54:41;8.50;;;4.40;;
20397;SDS011;10358;49.590;11.030;2023-08-01T05:57:07;7.38;;;4.43;;
20397;SDS011;10358;49.590;11.030;2023-08-01T05:59:33;8.23;;;4.35;;
20397;SDS011;10358;49.590;11.030;2023-08-01T06:01:59;12.55;;;5.50;;
20397;SDS011;10358;49.590;11.030;2023-08-01T06:04:24;7.05;;;4.47;;
20397;SDS011;10358;49.590;11.030;2023-08-01T06:06:50;7.63;;;4.72;;
20397;SDS011;10358;49.590;11.030;2023-08-01T06:09:16;11.00;;;4.70;;
20397;SDS011;10358;49.590;11.030;2023-08-01T06:11:42;9.95;;;4.45;;
20397;SDS011;10358;49.590;11.030;2023-08-01T06:14:08;8.85;;;4.30;;
20397;SDS011;10358;49.590;11.030;2023-08-01T06:16:35;10.50;;;5.07;;
20397;SDS011;10358;49.590;11.030;2023-08-01T06:19:00;9.30;;;4.30;;
20397;SDS011;10358;49.590;11.030;2023-08-01T06:21:26;10.23;;;4.38;;
20397;SDS011;10358;49.590;11.030;2023-08-01T06:23:52;8.95;;;4.60;;
20397;SDS011;10358;49.590;11.030;2023-08-01T06:26:17;7.97;;;4.10;;
20397;SDS011;10358;49.590;11.030;2023-08-01T06:28:43;7.07;;;4.25;;
20397;SDS011;10358;49.590;11.030;2023-08-01T06:31:08;7.68;;;4.40;;
20397;SDS011;10358;49.590;11.030;2023-08-01T06:33:34;8.02;;;4.43;;
20397;SDS011;10358;49.590;11.030;2023-08-01T06:35:59;8.85;;;4.43;;
20397;SDS011;10358;49.590;11.030;2023-08-01T06:38:25;10.68;;;4.72;;
20397;SDS011;10358;49.590;11.030;2023-08-01T06:40:50;8.80;;;4.53;;
20397;SDS011;10358;49.590;11.030;2023-08-01T06:43:16;8.73;;;4.65;;
20397;SDS011;10358;49.590;11.030;2023-08-01T06:45:41;7.78;;;4.70;;
20397;SDS011;10358;49.590;11.030;2023-08-01T06:48:07;8.93;;;4.95;;
20397;SDS011;10358;49.590;11.030;2023-08-01T06:50:33;9.98;;;4.70;;
20397;SDS011;10358;49.590;11.030;2023-08-01T06:52:59;10.57;;;4.30;;
20397;SDS011;10358;49.590;11.030;2023-08-01T06:55:25;9.07;;;4.45;;
20397;SDS011;10358;49.590;11.030;2023-08-01T06:57:51;11.60;;;5.18;;
20397;SDS011;10358;49.590;11.030;2023-08-01T07:00:17;14.98;;;6.05;;
20397;SDS011;10358;49.590;11.030;2023-08-01T07:02:43;11.02;;;5.93;;
20397;SDS011;10358;49.590;11.030;2023-08-01T07:05:08;7.90;;;4.55;;
20397;SDS011;10358;49.590;11.030;2023-08-01T07:07:34;9.48;;;4.72;;
20397;SDS011;10358;49.590;11.030;2023-08-01T07:09:59;8.45;;;5.18;;
20397;SDS011;10358;49.590;11.030;2023-08-01T07:12:25;13.80;;;5.00;;
20397;SDS011;10358;49.590;11.030;2023-08-01T07:14:50;8.48;;;4.88;;
20397;SDS011;10358;49.590;11.030;2023-08-01T07:17:16;6.43;;;4.40;;
20397;SDS011;10358;49.590;11.030;2023-08-01T07:19:42;9.07;;;4.30;;
20397;SDS011;10358;49.590;11.030;2023-08-01T07:22:07;10.95;;;4.75;;
20397;SDS011;10358;49.590;11.030;2023-08-01T07:24:33;10.15;;;5.22;;
20397;SDS011;10358;49.590;11.030;2023-08-01T07:26:58;8.00;;;3.97;;
20397;SDS011;10358;49.590;11.030;2023-08-01T07:29:24;7.57;;;4.35;;
20397;SDS011;10358;49.590;11.030;2023-08-01T07:31:49;10.68;;;4.57;;
20397;SDS011;10358;49.590;11.030;2023-08-01T07:34:15;6.82;;;4.20;;
20397;SDS011;10358;49.590;11.030;2023-08-01T07:36:41;8.57;;;4.30;;
20397;SDS011;10358;49.590;11.030;2023-08-01T07:39:07;8.95;;;4.32;;
20397;SDS011;10358;49.590;11.030;2023-08-01T07:41:32;9.68;;;4.57;;
20397;SDS011;10358;49.590;11.030;2023-08-01T07:44:00;7.63;;;3.85;;
20397;SDS011;10358;49.590;11.030;2023-08-01T07:46:27;8.57;;;4.25;;
20397;SDS011;10358;49.590;11.030;2023-08-01T07:48:52;8.43;;;4.30;;
20397;SDS011;10358;49.590;11.030;2023-08-01T07:51:19;9.85;;;4.32;;
20397;SDS011;10358;49.590;11.030;2023-08-01T07:53:44;9.43;;;4.63;;
20397;SDS011;10358;49.590;11.030;2023-08-01T07:56:10;6.85;;;4.13;;
20397;SDS011;10358;49.590;11.030;2023-08-01T07:58:35;8.23;;;4.15;;
20397;SDS011;10358;49.590;11.030;2023-08-01T08:01:04;8.73;;;4.13;;
20397;SDS011;10358;49.590;11.030;2023-08-01T08:03:30;9.38;;;4.32;;
20397;SDS011;10358;49.590;11.030;2023-08-01T08:05:56;9.25;;;3.97;;
20397;SDS011;10358;49.590;11.030;2023-08-01T08:08:22;9.80;;;4.10;;
20397;SDS011;10358;49.590;11.030;2023-08-01T08:10:47;8.68;;;4.60;;
20397;SDS011;10358;49.590;11.030;2023-08-01T08:13:13;8.82;;;4.10;;
20397;SDS011;10358;49.590;11.030;2023-08-01T08:15:38;8.75;;;4.03;;
20397;SDS011;10358;49.590;11.030;2023-08-01T08:18:04;8.55;;;4.25;;
20397;SDS011;10358;49.590;11.030;2023-08-01T08:20:30;7.30;;;4.07;;
20397;SDS011;10358;49.590;11.030;2023-08-01T08:22:57;7.65;;;4.35;;
20397;SDS011;10358;49.590;11.030;2023-08-01T08:25:22;6.93;;;3.72;;
20397;SDS011;10358;49.590;11.030;2023-08-01T08:27:51;8.50;;;4.20;;
20397;SDS011;10358;49.590;11.030;2023-08-01T08:30:16;6.28;;;4.22;;
20397;SDS011;10358;49.590;11.030;2023-08-01T08:32:42;7.65;;;4.35;;
20397;SDS011;10358;49.590;11.030;2023-08-01T08:35:08;7.13;;;4.60;;
20397;SDS011;10358;49.590;11.030;2023-08-01T08:37:33;7.35;;;4.07;;
20397;SDS011;10358;49.590;11.030;2023-08-01T08:39:59;6.80;;;3.90;;
20397;SDS011;10358;49.590;11.030;2023-08-01T08:42:24;7.63;;;4.05;;
20397;SDS011;10358;49.590;11.030;2023-08-01T08:44:52;7.35;;;3.72;;
20397;SDS011;10358;49.590;11.030;2023-08-01T08:47:20;6.22;;;3.33;;
20397;SDS011;10358;49.590;11.030;2023-08-01T08:49:50;5.68;;;3.50;;
20397;SDS011;10358;49.590;11.030;2023-08-01T08:52:17;9.77;;;3.88;;
20397;SDS011;10358;49.590;11.030;2023-08-01T08:54:44;7.72;;;4.05;;
20397;SDS011;10358;49.590;11.030;2023-08-01T08:57:11;7.05;;;3.58;;
20397;SDS011;10358;49.590;11.030;2023-08-01T08:59:37;6.10;;;3.83;;
20397;SDS011;10358;49.590;11.030;2023-08-01T09:02:04;7.45;;;3.65;;
20397;SDS011;10358;49.590;11.030;2023-08-01T09:04:30;5.85;;;3.67;;
20397;SDS011;10358;49.590;11.030;2023-08-01T09:06:58;7.20;;;3.53;;
20397;SDS011;10358;49.590;11.030;2023-08-01T09:09:26;7.68;;;3.60;;
20397;SDS011;10358;49.590;11.030;2023-08-01T09:11:53;5.13;;;3.47;;
20397;SDS011;10358;49.590;11.030;2023-08-01T09:14:21;6.35;;;3.38;;
20397;SDS011;10358;49.590;11.030;2023-08-01T09:16:47;5.85;;;3.53;;
20397;SDS011;10358;49.590;11.030;2023-08-01T09:19:19;7.28;;;3.50;;
20397;SDS011;10358;49.590;11.030;2023-08-01T09:21:47;4.57;;;3.35;;
20397;SDS011;10358;49.590;11.030;2023-08-01T09:24:14;7.72;;;3.65;;
20397;SDS011;10358;49.590;11.030;2023-08-01T09:26:41;6.40;;;3.20;;
20397;SDS011;10358;49.590;11.030;2023-08-01T09:29:07;7.40;;;3.58;;
20397;SDS011;10358;49.590;11.030;2023-08-01T09:31:33;6.22;;;3.50;;
20397;SDS011;10358;49.590;11.030;2023-08-01T09:34:01;6.60;;;3.55;;
20397;SDS011;10358;49.590;11.030;2023-08-01T09:36:30;6.28;;;3.95;;
20397;SDS011;10358;49.590;11.030;2023-08-01T09:39:00;8.13;;;3.75;;
20397;SDS011;10358;49.590;11.030;2023-08-01T09:41:30;10.40;;;4.45;;
20397;SDS011;10358;49.590;11.030;2023-08-01T09:43:56;6.25;;;4.25;;
20397;SDS011;10358;49.590;11.030;2023-08-01T09:46:23;6.07;;;3.83;;
20397;SDS011;10358;49.590;11.030;2023-08-01T09:48:49;8.52;;;3.90;;
20397;SDS011;10358;49.590;11.030;2023-08-01T09:51:15;7.35;;;4.05;;
20397;SDS011;10358;49.590;11.030;2023-08-01T09:54:16;10.32;;;4.47;;
20397;SDS011;10358;49.590;11.030;2023-08-01T09:56:34;6.22;;;3.75;;
20397;SDS011;10358;49.590;11.030;2023-08-01T09:59:00;8.88;;;4.28;;
20397;SDS011;10358;49.590;11.030;2023-08-01T10:01:26;8.35;;;4.57;;
20397;SDS011;10358;49.590;11.030;2023-08-01T10:03:53;10.48;;;4.60;;
20397;SDS011;10358;49.590;11.030;2023-08-01T10:06:22;8.73;;;4.15;;
20397;SDS011;10358;49.590;11.030;2023-08-01T10:08:50;12.90;;;5.07;;
20397;SDS011;10358;49.590;11.030;2023-08-01T10:11:17;10.85;;;5.10;;
20397;SDS011;10358;49.590;11.030;2023-08-01T10:13:44;7.47;;;4.10;;
20397;SDS011;10358;49.590;11.030;2023-08-01T10:16:10;7.13;;;4.78;;
20397;SDS011;10358;49.590;11.030;2023-08-01T10:18:37;7.60;;;4.38;;
20397;SDS011;10358;49.590;11.030;2023-08-01T10:21:05;6.80;;;4.28;;
20397;SDS011;10358;49.590;11.030;2023-08-01T10:23:36;7.20;;;4.15;;
20397;SDS011;10358;49.590;11.030;2023-08-01T10:26:03;5.97;;;3.45;;
20397;SDS011;10358;49.590;11.030;2023-08-01T10:28:32;7.45;;;3.88;;
20397;SDS011;10358;49.590;11.030;2023-08-01T10:31:09;6.80;;;3.70;;
20397;SDS011;10358;49.590;11.030;2023-08-01T10:33:36;6.78;;;3.88;;
20397;SDS011;10358;49.590;11.030;2023-08-01T10:36:16;6.57;;;3.67;;
20397;SDS011;10358;49.590;11.030;2023-08-01T10:38:49;6.70;;;3.53;;
20397;SDS011;10358;49.590;11.030;2023-08-01T10:41:19;5.75;;;3.60;;
20397;SDS011;10358;49.590;11.030;2023-08-01T10:43:46;4.72;;;3.38;;
20397;SDS011;10358;49.590;11.030;2023-08-01T10:46:12;5.75;;;3.35;;
20397;SDS011;10358;49.590;11.030;2023-08-01T10:48:51;5.78;;;3.55;;
20397;SDS011;10358;49.590;11.030;2023-08-01T10:51:17;5.82;;;3.10;;
20397;SDS011;10358;49.590;11.030;2023-08-01T10:53:42;4.43;;;2.83;;
20397;SDS011;10358;49.590;11.030;2023-08-01T10:56:15;4.40;;;2.90;;
20397;SDS011;10358;49.590;11.030;2023-08-01T10:58:45;5.15;;;2.65;;
20397;SDS011;10358;49.590;11.030;2023-08-01T11:01:11;5.57;;;3.05;;
20397;SDS011;10358;49.590;11.030;2023-08-01T11:03:37;5.78;;;2.50;;
20397;SDS011;10358;49.590;11.030;2023-08-01T11:06:04;6.10;;;2.72;;
20397;SDS011;10358;49.590;11.030;2023-08-01T11:08:36;4.47;;;2.83;;
20397;SDS011;10358;49.590;11.030;2023-08-01T11:11:04;3.88;;;2.50;;
20397;SDS011;10358;49.590;11.030;2023-08-01T11:13:35;5.00;;;2.45;;
20397;SDS011;10358;49.590;11.030;2023-08-01T11:16:02;3.95;;;2.15;;
20397;SDS011;10358;49.590;11.030;2023-08-01T11:18:52;3.70;;;2.05;;
20397;SDS011;10358;49.590;11.030;2023-08-01T11:21:24;3.00;;;2.08;;
20397;SDS011;10358;49.590;11.030;2023-08-01T11:23:51;3.35;;;1.83;;
20397;SDS011;10358;49.590;11.030;2023-08-01T11:26:17;3.97;;;2.03;;
20397;SDS011;10358;49.590;11.030;2023-08-01T11:28:42;4.20;;;1.92;;
20397;SDS011;10358;49.590;11.030;2023-08-01T11:31:11;2.85;;;1.80;;
20397;SDS011;10358;49.590;11.030;2023-08-01T11:33:40;3.45;;;2.03;;
20397;SDS011;10358;49.590;11.030;2023-08-01T11:36:06;4.05;;;1.83;;
20397;SDS011;10358;49.590;11.030;2023-08-01T11:38:33;4.50;;;1.60;;
20397;SDS011;10358;49.590;11.030;2023-08-01T11:41:03;1.92;;;1.50;;
20397;SDS011;10358;49.590;11.030;2023-08-01T11:43:39;1.45;;;0.88;;
20397;SDS011;10358;49.590;11.030;2023-08-01T11:46:05;1.80;;;1.10;;
20397;SDS011;10358;49.590;11.030;2023-08-01T11:48:31;4.43;;;1.33;;
20397;SDS011;10358;49.590;11.030;2023-08-01T11:50:59;2.80;;;1.23;;
20397;SDS011;10358;49.590;11.030;2023-08-01T11:53:26;2.03;;;1.30;;
20397;SDS011;10358;49.590;11.030;2023-08-01T11:55:53;2.08;;;1.23;;
20397;SDS011;10358;49.590;11.030;2023-08-01T12:01:14;2.10;;;1.40;;
20397;SDS011;10358;49.590;11.030;2023-08-01T12:03:43;2.72;;;1.40;;
20397;SDS011;10358;49.590;11.030;2023-08-01T12:06:09;3.90;;;1.30;;
20397;SDS011;10358;49.590;11.030;2023-08-01T12:08:36;2.40;;;1.50;;
20397;SDS011;10358;49.590;11.030;2023-08-01T12:11:03;2.13;;;1.20;;
20397;SDS011;10358;49.590;11.030;2023-08-01T12:13:28;2.42;;;1.30;;
20397;SDS011;10358;49.590;11.030;2023-08-01T12:15:56;2.53;;;1.30;;
20397;SDS011;10358;49.590;11.030;2023-08-01T12:18:26;2.00;;;1.25;;
20397;SDS011;10358;49.590;11.030;2023-08-01T12:20:52;2.03;;;1.30;;
20397;SDS011;10358;49.590;11.030;2023-08-01T12:23:18;2.20;;;1.40;;
20397;SDS011;10358;49.590;11.030;2023-08-01T12:25:45;1.75;;;1.30;;
20397;SDS011;10358;49.590;11.030;2023-08-01T12:28:13;3.03;;;1.30;;
20397;SDS011;10358;49.590;11.030;2023-08-01T12:30:39;4.95;;;1.40;;
20397;SDS011;10358;49.590;11.030;2023-08-01T12:33:08;3.55;;;1.27;;
20397;SDS011;10358;49.590;11.030;2023-08-01T12:35:38;1.48;;;1.30;;
20397;SDS011;10358;49.590;11.030;2023-08-01T12:38:05;2.08;;;1.30;;
20397;SDS011;10358;49.590;11.030;2023-08-01T12:40:30;2.22;;;1.30;;
20397;SDS011;10358;49.590;11.030;2023-08-01T12:42:56;2.45;;;1.50;;
20397;SDS011;10358;49.590;11.030;2023-08-01T12:45:21;3.22;;;1.50;;
20397;SDS011;10358;49.590;11.030;2023-08-01T12:47:48;2.03;;;1.30;;
20397;SDS011;10358;49.590;11.030;2023-08-01T12:50:13;2.80;;;1.20;;
20397;SDS011;10358;49.590;11.030;2023-08-01T12:52:39;1.95;;;1.20;;
20397;SDS011;10358;49.590;11.030;2023-08-01T12:55:04;1.77;;;1.30;;
20397;SDS011;10358;49.590;11.030;2023-08-01T12:57:30;2.28;;;1.20;;
20397;SDS011;10358;49.590;11.030;2023-08-01T12:59:56;1.73;;;1.35;;
20397;SDS011;10358;49.590;11.030;2023-08-01T13:02:21;3.25;;;1.30;;
20397;SDS011;10358;49.590;11.030;2023-08-01T13:04:47;2.58;;;1.10;;
20397;SDS011;10358;49.590;11.030;2023-08-01T13:07:12;2.38;;;1.20;;
20397;SDS011;10358;49.590;11.030;2023-08-01T13:09:38;1.63;;;1.02;;
20397;SDS011;10358;49.590;11.030;2023-08-01T13:12:04;4.85;;;1.33;;
20397;SDS011;10358;49.590;11.030;2023-08-01T13:14:31;3.40;;;1.20;;
20397;SDS011;10358;49.590;11.030;2023-08-01T13:16:58;2.25;;;1.20;;
20397;SDS011;10358;49.590;11.030;2023-08-01T13:19:24;4.88;;;1.15;;
20397;SDS011;10358;49.590;11.030;2023-08-01T13:21:50;2.97;;;1.00;;
20397;SDS011;10358;49.590;11.030;2023-08-01T13:24:15;1.45;;;1.10;;
20397;SDS011;10358;49.590;11.030;2023-08-01T13:26:41;1.73;;;1.23;;
20397;SDS011;10358;49.590;11.030;2023-08-01T13:29:06;1.15;;;1.05;;
20397;SDS011;10358;49.590;11.030;2023-08-01T13:31:32;1.98;;;1.10;;
20397;SDS011;10358;49.590;11.030;2023-08-01T13:33:58;4.20;;;1.13;;
20397;SDS011;10358;49.590;11.030;2023-08-01T13:36:24;1.55;;;1.15;;
20397;SDS011;10358;49.590;11.030;2023-08-01T13:38:49;2.90;;;1.30;;
20397;SDS011;10358;49.590;11.030;2023-08-01T13:41:15;2.30;;;1.23;;
20397;SDS011;10358;49.590;11.030;2023-08-01T13:43:41;3.30;;;1.23;;
20397;SDS011;10358;49.590;11.030;2023-08-01T13:46:11;1.42;;;1.02;;
20397;SDS011;10358;49.590;11.030;2023-08-01T13:48:38;3.22;;;1.10;;
20397;SDS011;10358;49.590;11.030;2023-08-01T13:51:04;2.42;;;0.98;;
20397;SDS011;10358;49.590;11.030;2023-08-01T13:53:29;1.42;;;0.95;;
20397;SDS011;10358;49.590;11.030;2023-08-01T13:55:55;4.63;;;1.13;;
20397;SDS011;10358;49.590;11.030;2023-08-01T13:58:21;5.30;;;1.40;;
20397;SDS011;10358;49.590;11.030;2023-08-01T14:00:46;4.15;;;1.33;;
20397;SDS011;10358;49.590;11.030;2023-08-01T14:03:12;4.65;;;1.20;;
20397;SDS011;10358;49.590;11.030;2023-08-01T14:05:37;2.78;;;1.27;;
20397;SDS011;10358;49.590;11.030;2023-08-01T14:08:03;8.73;;;1.33;;
20397;SDS011;10358;49.590;11.030;2023-08-01T14:10:28;4.55;;;1.40;;
20397;SDS011;10358;49.590;11.030;2023-08-01T14:12:54;10.00;;;1.30;;
20397;SDS011;10358;49.590;11.030;2023-08-01T14:15:20;5.15;;;1.17;;
20397;SDS011;10358;49.590;11.030;2023-08-01T14:17:45;6.10;;;1.23;;
20397;SDS011;10358;49.590;11.030;2023-08-01T14:20:11;3.47;;;1.05;;
20397;SDS011;10358;49.590;11.030;2023-08-01T14:22:37;3.92;;;1.10;;
20397;SDS011;10358;49.590;11.030;2023-08-01T14:25:03;3.00;;;1.02;;
20397;SDS011;10358;49.590;11.030;2023-08-01T14:27:29;1.83;;;0.80;;
20397;SDS011;10358;49.590;11.030;2023-08-01T14:29:55;5.03;;;1.45;;
20397;SDS011;10358;49.590;11.030;2023-08-01T14:32:21;6.72;;;0.90;;